header
chart

Reported and forecast weather at local airports

Important: not to be used for flight planning purposes.


EGBB METAR fetched   Tuesday 20th Feb @ 17:23:14
EGBB 201650Z 35015KT 9999 BKN038 09/02 Q1023

EGCC METAR fetched   Tuesday 20th Feb @ 17:23:10
EGCC 201650Z 35010KT 9999 SCT042 09/02 Q1025 NOSIG

EGGP METAR fetched   Tuesday 20th Feb @ 17:23:11
EGGP 201650Z 34012KT CAVOK 09/03 Q1026

EGNH METAR fetched   Tuesday 20th Feb @ 17:23:12
EGNH 201650Z 33013KT 9999 FEW035 07/05 Q1026

EGNM METAR fetched   Tuesday 20th Feb @ 17:23:13
EGNM 201650Z 36013KT 330V030 9999 SCT028 SCT041 08/01 Q1024

EGOV METAR fetched   Tuesday 20th Feb @ 17:23:15
EGOV 201650Z 34014KT 9999 FEW016 08/04 Q1027 BLU NOSIG


EGBB TAF fetched   Tuesday 20th Feb @ 17:23:14
TAF EGBB 201703Z 2018/2118 34015KT 9999 SCT040 BECMG 2018/2021 35005KT PROB30 TEMPO 2018/2020 36018G28KT BECMG 2022/2101 BKN014 PROB30 TEMPO 2102/2112 8000 -RADZ BKN009

EGCC TAF fetched   Tuesday 20th Feb @ 17:23:10
TAF EGCC 201703Z 2018/2124 35007KT 9999 FEW040 PROB30 TEMPO 2100/2107 8000 -RADZ BKN014

EGGP TAF fetched   Tuesday 20th Feb @ 17:23:11
TAF EGGP 201703Z 2018/2118 35013KT 9999 FEW040 BECMG 2018/2020 35003KT PROB30 TEMPO 2100/2103 BKN014

EGNM TAF fetched   Tuesday 20th Feb @ 17:23:13
TAF TAF EGNM 201702Z 2018/2118 35012KT 9999 SCT020 TEMPO 2021/2112 BKN012 BECMG 2022/2101 VRB05KT PROB30 TEMPO 2023/2108 9000 BKN004

EGOV TAF fetched   Tuesday 20th Feb @ 17:23:15
TAF TAF EGOV 190525Z 1906/1918 04008KT CAVOK PROB30 TEMPO 1906/1912 6000 SHRA TEMPO 1912/1915 4000 +SHRA SCT020 BKN030CB PROB30 TEMPO 1913/1915 VRBG20G30KT 2500 TSGR BKN012

Every effort is made to ensure that this information is free from errors but as it is provided by a third party the accuracy of the reports cannot be guaranteed.